Huvudsida
METAR-TAF:

METAR-TAF

Flygplatser :

Van, Turkiet

latitud: 38-27N, longitud: 043-19E, höjd: 1667 m

Aktuellt väderrapport

Denna rapport gjordes för 55 minuter sedan, klockan 11:50 UTC
Vind 9 kt från väst
Temperatur 24°C
Fuktighet 44%
Tryck 1018 hPa
Sikt 10 km eller mer
Få moln på en höjd av 4000 ft

METAR: LTCI 141150Z 28009KT 9999 FEW040 24/11 Q1018 NOSIG

Tid: 15:45 (12:45 UTC)

Väderprognos

Denna rapport gjordes för 2 timmar och 5 minuter sedan, klockan 10:40 UTC
Prognos gäller från 14 kl. 12 UTC till 14 kl. 21 UTC
Vind 9 kt från väst/nordväst
Sikt 10 km eller mer
Få moln på en höjd av 4000 ft
Blir
från 14 kl. 16 UTC till 14 kl. 18 UTC
Vind 10 kt från ost

TAF: LTCI 141040Z 1412/1421 29009KT 9999 FEW040 BECMG 1416/1418 10010KT

Aktuella väderrapporter och prognoser från 4000 flygplatser (METAR- och TAF-rapporter).

De tillgängliga stationerna syns som gula och röda prickar på kartan.

För musen över prickarna för att se namnen på stationerna.

Klicka sedan för att få väderrapporter och prognoser.

För att ändra kartan: Klicka på de gröna knapparna med ett svart kors på för att zooma in; den gröna knappen med ett streck på för att zooma ut; eller på de gröna pilarna för angränsande kartor.


METAR-TAF: